Wind from 197

Air temperature 10.6° C
Dewpoint 9.0° C

Last reported at 2014-Apr-20 10:39 UTC.
Time now 2014-Apr-20 11:47 UTC

Location: N 42°14' E 000°59'.
View on Google Maps.

See reports from other nearby stations

Tides Stations Pressure Air Temp Water Temp Dewpoint Dewpoint depression Visibility Wind Speed Wind Dir Waves Ship positions

  
sailing weather and tide predictions

CW3467 Sant Marti de Canals ES weather

date/time (UTC)wind fromknots sea level pressurealtimeterstation pressurevisibilityair tempwater tempwave heightnotes
2014-Apr-20 10:39 197 10.6
2014-Apr-20 10:22 008 10.0
2014-Apr-20 10:07 263 9.4
2014-Apr-20 09:51 290 9.4
2014-Apr-20 09:36 288 8.9
2014-Apr-20 09:20 341 0 gusting 2 8.9
2014-Apr-20 09:06 339 0 gusting 2 8.9
2014-Apr-20 08:49 023 8.9
2014-Apr-20 08:34 337 1 gusting 3 8.3
2014-Apr-20 08:19 326 1 gusting 3 8.3
2014-Apr-20 08:03 327 1 gusting 4 8.3
2014-Apr-20 07:48 330 1 gusting 4 8.3
2014-Apr-20 07:32 355 0 gusting 2 8.3
2014-Apr-20 07:17 027 0 gusting 3 8.9
2014-Apr-20 07:02 355 8.9
2014-Apr-20 06:46 018 8.9
2014-Apr-20 06:30 332 8.9
2014-Apr-20 06:15 333 8.3
2014-Apr-20 06:01 026 8.3
2014-Apr-20 05:44 340 8.3
2014-Apr-20 05:29 036 8.9
2014-Apr-20 05:13 341 8.9
2014-Apr-20 04:58 322 0 gusting 4 8.9
2014-Apr-20 04:42 111 0 gusting 3 8.9
2014-Apr-20 04:27 098 1 gusting 3 8.9
2014-Apr-20 04:12 126 2 gusting 5 8.9
2014-Apr-20 03:55 212 8.9
2014-Apr-20 03:40 056 9.4
2014-Apr-20 03:25 337 9.4
2014-Apr-20 03:09 008 8.9
2014-Apr-20 02:53 338 0 gusting 2 8.9
2014-Apr-20 02:39 340 0 gusting 2 8.9
2014-Apr-20 02:23 327 9.4
2014-Apr-20 02:07 026 8.9
2014-Apr-20 01:52 314 9.4
2014-Apr-20 01:37 330 9.4
2014-Apr-20 01:21 265 8.9
2014-Apr-20 01:06 359 8.9
2014-Apr-20 00:50 325 8.9
2014-Apr-20 00:34 281 9.4
2014-Apr-20 00:20 339 0 gusting 1 9.4
2014-Apr-20 00:04 346 9.4
2014-Apr-19 23:48 325 9.4
2014-Apr-19 23:33 152 9.4
2014-Apr-19 23:18 148 0 gusting 2 9.4
2014-Apr-19 23:02 150 0 gusting 2 9.4
2014-Apr-19 22:46 325 9.4
2014-Apr-19 22:32 325 0 gusting 6 9.4
2014-Apr-19 22:15 156 10.6
2014-Apr-19 22:00 121 4 gusting 8 10.6
2014-Apr-19 21:44 115 4 gusting 6 11.1
2014-Apr-19 21:30 022 11.1
2014-Apr-19 21:14 228 11.1
2014-Apr-19 20:58 098 6 gusting 13 11.7
2014-Apr-19 20:43 191 1 gusting 10 12.2
2014-Apr-19 20:27 153 8 gusting 16 11.7
2014-Apr-19 20:12 153 8 gusting 17 12.2
2014-Apr-19 19:56 129 10 gusting 19 12.2
2014-Apr-19 19:42 110 10 gusting 15 12.8
2014-Apr-19 19:25 148 13 gusting 22 13.3
2014-Apr-19 19:10 134 14 gusting 22 13.3
2014-Apr-19 18:55 147 18 gusting 30 14.4
2014-Apr-19 18:40 132 18 gusting 26 15.0
2014-Apr-19 18:23 125 19 gusting 26 15.0
2014-Apr-19 18:07 128 17 gusting 25 16.1
2014-Apr-19 17:52 122 14 gusting 26 17.2
2014-Apr-19 17:37 141 16 gusting 26 18.3
2014-Apr-19 17:22 148 13 gusting 20 19.4
2014-Apr-19 17:06 148 12 gusting 19 20.0
2014-Apr-19 16:50 148 7 gusting 14 21.7
2014-Apr-19 16:35 138 6 gusting 13 21.1
2014-Apr-19 16:21 117 5 gusting 16 21.7
2014-Apr-19 16:05 132 3 gusting 12 21.7
2014-Apr-19 15:50 205 4 gusting 12 21.7
2014-Apr-19 15:33 203 2 gusting 11 21.1
2014-Apr-19 15:18 151 5 gusting 11 21.7
2014-Apr-19 15:02 150 3 gusting 11 21.7
2014-Apr-19 14:47 176 3 gusting 13 21.7
2014-Apr-19 14:31 219 5 gusting 11 21.1
2014-Apr-19 14:17 148 4 gusting 12 21.1
2014-Apr-19 14:00 019 3 gusting 9 21.1
2014-Apr-19 13:29 136 5 gusting 12 21.1
2014-Apr-19 13:15 205 1 gusting 10 21.1
2014-Apr-19 12:58 148 5 gusting 11 21.1
2014-Apr-19 12:43 151 2 gusting 7 21.1
2014-Apr-19 12:27 143 6 gusting 10 20.6
2014-Apr-19 12:12 231 5 gusting 8 20.6
2014-Apr-19 11:57 153 4 gusting 11 21.1
2014-Apr-19 11:41 342 3 gusting 9 20.6
2014-Apr-19 11:26 248 3 gusting 9 20.6
2014-Apr-19 11:10 103 4 gusting 9 20.6
2014-Apr-19 10:55 192 2 gusting 5 20.6
2014-Apr-19 10:39 194 0 gusting 6 20.0
2014-Apr-19 10:25 263 2 gusting 5 20.0
2014-Apr-19 10:10 158 20.0
2014-Apr-19 09:53 243 19.4
2014-Apr-19 09:37 166 1 gusting 4 18.3
2014-Apr-19 09:23 237 0 gusting 3 17.8
2014-Apr-19 09:06 294 0 gusting 2 16.1
2014-Apr-19 08:51 229 16.1
2014-Apr-19 08:36 252 0 gusting 4 15.6
2014-Apr-19 08:20 222 15.6
2014-Apr-19 08:04 233 15.0
2014-Apr-19 07:50 252 15.0
2014-Apr-19 07:33 348 13.3
2014-Apr-19 07:18 218 12.8
2014-Apr-19 07:02 122 12.2
2014-Apr-19 06:47 069 10.6
2014-Apr-19 06:31 023 8.3
2014-Apr-19 06:17 094 8.3
2014-Apr-19 06:00 356 0 gusting 2 8.3
2014-Apr-19 05:45 212 8.3
2014-Apr-19 05:30 037 8.3
2014-Apr-19 05:14 218 8.9
2014-Apr-19 05:00 046 8.3
2014-Apr-19 04:43 114 9.4
2014-Apr-19 04:28 085 9.4
2014-Apr-19 04:12 104 9.4
2014-Apr-19 03:57 108 9.4
2014-Apr-19 03:42 098 10.0
2014-Apr-19 03:26 100 10.0
2014-Apr-19 03:10 041 10.6
2014-Apr-19 02:55 106 10.6
2014-Apr-19 02:39 120 0 gusting 2 10.6
2014-Apr-19 02:24 271 10.6
2014-Apr-19 02:09 105 0 gusting 1 10.6
2014-Apr-19 01:53 172 11.1
2014-Apr-19 01:37 134 11.1
2014-Apr-19 01:22 137 11.7
2014-Apr-19 01:07 215 11.7
2014-Apr-19 00:51 113 1 gusting 3 12.8
2014-Apr-19 00:36 148 12.8
2014-Apr-19 00:20 143 1 gusting 2 12.2
2014-Apr-19 00:04 053 12.8
2014-Apr-18 23:49 096 12.8
2014-Apr-18 23:34 041 0 gusting 3 12.2
2014-Apr-18 23:19 113 0 gusting 2 12.8
2014-Apr-18 23:03 249 12.8
2014-Apr-18 22:47 065 13.3
2014-Apr-18 22:31 345 14.4
2014-Apr-18 22:16 142 15.0
2014-Apr-18 22:00 098 1 gusting 2 14.4
2014-Apr-18 21:45 275 13.9
2014-Apr-18 21:29 158 14.4
2014-Apr-18 21:15 119 0 gusting 1 15.6
2014-Apr-18 20:59 229 16.1
2014-Apr-18 20:43 053 16.1
2014-Apr-18 20:12 214 0 gusting 2 16.7
2014-Apr-18 19:57 076 17.2
2014-Apr-18 19:43 084 17.8
2014-Apr-18 19:26 067 19.4
2014-Apr-18 19:11 094 2 gusting 4 18.9
2014-Apr-18 18:55 044 0 gusting 2 18.3
2014-Apr-18 18:40 094 2 gusting 3 19.4
2014-Apr-18 18:24 140 2 gusting 6 20.0
2014-Apr-18 18:09 198 3 gusting 7 21.1
2014-Apr-18 17:53 217 3 gusting 8 21.7
2014-Apr-18 17:37 230 3 gusting 6 22.2
2014-Apr-18 17:22 225 2 gusting 6 22.2
2014-Apr-18 17:07 215 3 gusting 6 22.2
2014-Apr-18 16:51 228 0 gusting 6 22.2
2014-Apr-18 16:37 222 5 gusting 9 22.2
2014-Apr-18 16:21 004 6 gusting 10 22.2
2014-Apr-18 16:06 200 3 gusting 12 22.2
2014-Apr-18 15:49 163 3 gusting 8 22.8
2014-Apr-18 15:34 233 6 gusting 11 22.8
2014-Apr-18 15:19 221 4 gusting 10 22.8
2014-Apr-18 15:03 280 6 gusting 10 23.3
2014-Apr-18 14:48 197 6 gusting 11 23.3
2014-Apr-18 14:32 219 4 gusting 9 23.9
2014-Apr-18 14:18 201 4 gusting 7 24.4
2014-Apr-18 14:02 243 3 gusting 8 25.0
2014-Apr-18 13:49 219 1 gusting 6 24.4
2014-Apr-18 13:30 238 2 gusting 9 24.4
2014-Apr-18 13:15 193 2 gusting 7 23.9
2014-Apr-18 13:00 238 0 gusting 6 24.4
2014-Apr-18 12:44 188 1 gusting 4 23.3
2014-Apr-18 12:29 174 0 gusting 5 23.3
2014-Apr-18 12:13 136 2 gusting 4 23.9
2014-Apr-18 11:58 235 1 gusting 5 22.8
2014-Apr-18 11:42 219 1 gusting 5 22.8
2014-Apr-18 11:27 106 0 gusting 2 22.8
2014-Apr-18 11:12 146 1 gusting 3 22.8